Time;durP1;ratioP1;P1;durP2;ratioP2;P2;SDS_P1;SDS_P2;PMS_P1;PMS_P2;Temp;Humidity;BMP_temperature;BMP_pressure;BME280_temperature;BME280_humidity;BME280_pressure;Samples;Min_cycle;Max_cycle;Signal;HPM_P1;HPM_P2
2023/01/25 00:01:37;;;;;;;;;;;25.40;99.90;;;;;;5013764;28;19913;-73
2023/01/25 00:04:04;;;;;;;;;;;25.60;99.90;;;;;;5013699;28;19916;-72
2023/01/25 00:06:31;;;;;;;;;;;25.70;99.90;;;;;;5012620;28;19997;-73
2023/01/25 00:08:57;;;;;;;;;;;25.70;99.90;;;;;;5013546;28;19924;-71
2023/01/25 00:11:24;;;;;;;;;;;25.90;99.90;;;;;;5013193;28;20016;-73
2023/01/25 00:13:54;;;;;;;;;;;25.90;99.90;;;;;;5013479;28;19910;-74
2023/01/25 00:16:20;;;;;;;;;;;25.80;99.90;;;;;;5012940;28;20291;-71
2023/01/25 00:18:48;;;;;;;;;;;25.60;99.90;;;;;;5013307;28;19917;-73
2023/01/25 00:21:19;;;;;;;;;;;25.50;99.90;;;;;;5011566;28;20005;-72
2023/01/25 00:23:49;;;;;;;;;;;25.60;99.90;;;;;;5019745;28;19921;-73
2023/01/25 00:26:16;;;;;;;;;;;25.60;99.90;;;;;;5012579;28;20279;-71
2023/01/25 00:29:05;;;;;;;;;;;25.50;99.90;;;;;;5013202;28;19921;-72
2023/01/25 00:31:35;;;;;;;;;;;25.50;99.90;;;;;;5012147;28;20323;-73
2023/01/25 00:34:17;;;;;;;;;;;25.60;99.90;;;;;;5013279;28;19913;-73
2023/01/25 00:36:44;;;;;;;;;;;26.00;99.90;;;;;;5013501;28;19910;-73
2023/01/25 00:39:14;;;;;;;;;;;26.20;99.90;;;;;;5013183;28;19916;-74
2023/01/25 00:41:44;;;;;;;;;;;26.00;99.90;;;;;;5012396;28;19918;-72
2023/01/25 00:44:17;;;;;;;;;;;26.00;99.90;;;;;;5013112;28;20341;-74
2023/01/25 00:46:43;;;;;;;;;;;25.70;99.90;;;;;;5013071;28;19916;-73
2023/01/25 00:49:30;;;;;;;;;;;25.50;99.90;;;;;;5013034;28;19918;-74
2023/01/25 00:51:57;;;;;;;;;;;25.90;99.90;;;;;;5013016;28;19916;-74
2023/01/25 00:54:24;;;;;;;;;;;26.10;99.90;;;;;;5012011;28;19916;-73
2023/01/25 00:56:52;;;;;;;;;;;26.10;99.90;;;;;;5013263;28;19917;-74
2023/01/25 00:59:19;;;;;;;;;;;26.00;99.90;;;;;;5012763;28;19920;-74
2023/01/25 01:01:52;;;;;;;;;;;26.00;99.90;;;;;;5011905;28;19964;-72
2023/01/25 01:04:29;;;;;;;;;;;;;;;;;;;;;
2023/01/25 01:07:06;;;;;;;;;;;25.80;99.90;;;;;;5008004;28;19913;-73
2023/01/25 01:09:33;;;;;;;;;;;25.60;99.90;;;;;;5012195;28;20265;-73
2023/01/25 01:12:06;;;;;;;;;;;25.60;99.90;;;;;;5012996;28;19909;-74
2023/01/25 01:14:52;;;;;;;;;;;25.90;99.90;;;;;;5012549;28;19921;-73
2023/01/25 01:17:19;;;;;;;;;;;26.70;99.90;;;;;;5026349;28;19913;-71
2023/01/25 01:19:52;;;;;;;;;;;27.50;99.90;;;;;;5012259;28;19960;-72
2023/01/25 01:22:24;;;;;;;;;;;27.80;99.90;;;;;;5013034;28;19917;-73
2023/01/25 01:25:00;;;;;;;;;;;28.20;99.90;;;;;;5030973;28;19909;-73
2023/01/25 01:27:27;;;;;;;;;;;28.40;99.90;;;;;;5032498;28;19937;-73
2023/01/25 01:29:59;;;;;;;;;;;28.00;99.90;;;;;;5032448;28;19958;-72
2023/01/25 01:32:29;;;;;;;;;;;27.40;99.90;;;;;;5035609;28;20394;-73
2023/01/25 01:34:56;;;;;;;;;;;27.10;99.90;;;;;;5029382;28;20011;-71
2023/01/25 01:37:28;;;;;;;;;;;26.80;99.90;;;;;;5016320;28;19914;-73
2023/01/25 01:40:15;;;;;;;;;;;26.70;99.90;;;;;;5016701;28;19909;-74
2023/01/25 01:43:00;;;;;;;;;;;26.50;99.90;;;;;;5029923;28;19917;-72
2023/01/25 01:45:47;;;;;;;;;;;26.20;99.90;;;;;;5015599;28;19910;-71
2023/01/25 01:48:35;;;;;;;;;;;26.30;99.90;;;;;;5016243;28;19971;-72
2023/01/25 01:51:09;;;;;;;;;;;26.70;99.90;;;;;;5015540;28;19949;-74
2023/01/25 01:53:39;;;;;;;;;;;27.50;99.90;;;;;;5016097;28;19910;-73
2023/01/25 01:56:12;;;;;;;;;;;28.30;99.90;;;;;;5015860;28;19917;-75
2023/01/25 01:58:42;;;;;;;;;;;28.60;99.90;;;;;;5016284;28;20333;-74
2023/01/25 02:01:16;;;;;;;;;;;28.50;99.90;;;;;;5016348;28;19922;-74
2023/01/25 02:03:43;;;;;;;;;;;28.20;99.90;;;;;;5015693;28;19960;-72
2023/01/25 02:06:13;;;;;;;;;;;27.90;99.90;;;;;;5015372;28;19921;-74
2023/01/25 02:08:42;;;;;;;;;;;27.50;99.90;;;;;;5015851;28;19922;-74
2023/01/25 02:11:09;;;;;;;;;;;27.30;99.90;;;;;;5015432;28;19920;-74
2023/01/25 02:13:39;;;;;;;;;;;26.90;99.90;;;;;;5015639;28;19932;-73
2023/01/25 02:16:16;;;;;;;;;;;26.70;99.90;;;;;;5015518;28;19909;-74
2023/01/25 02:18:46;;;;;;;;;;;26.70;99.90;;;;;;5015068;28;20360;-74
2023/01/25 02:21:13;;;;;;;;;;;26.80;99.90;;;;;;5015566;28;19971;-73
2023/01/25 02:24:00;;;;;;;;;;;26.90;99.90;;;;;;5024435;28;20031;-75
2023/01/25 02:26:30;;;;;;;;;;;27.00;99.90;;;;;;5035191;28;19913;-74
2023/01/25 02:29:00;;;;;;;;;;;27.20;99.90;;;;;;5035331;28;19953;-72
2023/01/25 02:31:30;;;;;;;;;;;27.40;99.90;;;;;;5035197;28;20368;-74
2023/01/25 02:33:56;;;;;;;;;;;27.20;99.90;;;;;;5025448;28;19910;-74
2023/01/25 02:36:31;;;;;;;;;;;27.10;99.90;;;;;;5013886;28;19981;-75
2023/01/25 02:39:04;;;;;;;;;;;27.00;99.90;;;;;;5013755;28;20387;-74
2023/01/25 02:41:39;;;;;;;;;;;26.90;99.90;;;;;;5015440;28;19913;-74
2023/01/25 02:44:17;;;;;;;;;;;26.90;99.90;;;;;;5014159;28;19914;-74
2023/01/25 02:46:44;;;;;;;;;;;26.80;99.90;;;;;;5015868;28;19909;-73
2023/01/25 02:49:12;;;;;;;;;;;26.80;99.90;;;;;;5015227;28;19917;-68
2023/01/25 02:51:40;;;;;;;;;;;26.80;99.90;;;;;;5014007;28;19945;-67
2023/01/25 02:54:10;;;;;;;;;;;26.80;99.90;;;;;;5014814;28;19963;-68
2023/01/25 02:56:39;;;;;;;;;;;27.20;99.90;;;;;;5013834;28;19909;-74
2023/01/25 02:59:12;;;;;;;;;;;27.10;99.90;;;;;;5015025;28;19913;-71
2023/01/25 03:01:39;;;;;;;;;;;26.80;99.90;;;;;;5014478;28;19940;-68
2023/01/25 03:04:09;;;;;;;;;;;26.50;99.90;;;;;;5014626;28;19916;-69
2023/01/25 03:06:39;;;;;;;;;;;26.50;99.90;;;;;;5015036;28;19909;-74
2023/01/25 03:09:07;;;;;;;;;;;26.60;99.90;;;;;;5014806;28;19917;-72
2023/01/25 03:11:36;;;;;;;;;;;26.50;99.90;;;;;;5013624;28;20049;-72
2023/01/25 03:14:09;;;;;;;;;;;26.40;99.90;;;;;;5014084;28;19941;-67
2023/01/25 03:16:36;;;;;;;;;;;26.40;99.90;;;;;;5015014;28;20316;-75
2023/01/25 03:19:05;;;;;;;;;;;26.40;99.90;;;;;;5014662;28;20433;-72
2023/01/25 03:21:32;;;;;;;;;;;26.40;99.90;;;;;;5014479;28;20361;-67
2023/01/25 03:24:05;;;;;;;;;;;26.50;99.90;;;;;;5025641;28;19916;-72
2023/01/25 03:27:09;;;;;;;;;;;26.50;99.90;;;;;;5028840;28;19913;-65
2023/01/25 03:29:21;;;;;;;;;;;26.50;99.90;;;;;;5013801;28;19964;-67
2023/01/25 03:31:51;;;;;;;;;;;26.30;99.90;;;;;;5014319;28;20380;-71
2023/01/25 03:34:17;;;;;;;;;;;26.50;99.90;;;;;;5013981;28;19916;-70
2023/01/25 03:36:53;;;;;;;;;;;26.60;99.90;;;;;;5014446;28;19996;-72
2023/01/25 03:39:23;;;;;;;;;;;26.60;99.90;;;;;;5013089;28;19909;-69
2023/01/25 03:41:52;;;;;;;;;;;26.60;99.90;;;;;;5013564;28;19914;-67
2023/01/25 03:44:19;;;;;;;;;;;26.40;99.90;;;;;;5013734;28;19910;-71
2023/01/25 03:46:46;;;;;;;;;;;26.30;99.90;;;;;;5014141;28;20364;-72
2023/01/25 03:49:13;;;;;;;;;;;26.40;99.90;;;;;;5013219;28;19923;-74
2023/01/25 03:51:39;;;;;;;;;;;26.30;99.90;;;;;;5014202;28;19910;-71
2023/01/25 03:54:07;;;;;;;;;;;26.30;99.90;;;;;;5013180;28;19945;-75
2023/01/25 03:56:36;;;;;;;;;;;26.40;99.90;;;;;;5013206;28;19914;-72
2023/01/25 03:59:03;;;;;;;;;;;26.40;99.90;;;;;;5012853;28;19979;-69
2023/01/25 04:01:30;;;;;;;;;;;26.30;99.90;;;;;;5013766;28;19949;-75
2023/01/25 04:04:03;;;;;;;;;;;26.30;99.90;;;;;;5013762;28;20371;-67
2023/01/25 04:06:29;;;;;;;;;;;26.20;99.90;;;;;;5013781;28;19910;-69
2023/01/25 04:08:59;;;;;;;;;;;26.20;99.90;;;;;;5013705;28;19963;-70
2023/01/25 04:11:28;;;;;;;;;;;26.20;99.90;;;;;;5012930;28;19967;-66
2023/01/25 04:13:55;;;;;;;;;;;26.20;99.90;;;;;;5013251;28;19996;-68
2023/01/25 04:16:22;;;;;;;;;;;26.10;99.90;;;;;;5013562;28;20348;-69
2023/01/25 04:18:49;;;;;;;;;;;26.20;99.90;;;;;;5013543;28;19909;-69
2023/01/25 04:21:15;;;;;;;;;;;26.10;99.90;;;;;;5013451;28;20008;-72
2023/01/25 04:23:42;;;;;;;;;;;26.20;99.90;;;;;;5022633;28;19919;-69
2023/01/25 04:26:15;;;;;;;;;;;26.30;99.90;;;;;;5021845;28;19960;-73
2023/01/25 04:28:45;;;;;;;;;;;26.30;99.90;;;;;;5013168;28;19940;-69
2023/01/25 04:31:12;;;;;;;;;;;26.20;99.90;;;;;;5013339;28;19913;-66
2023/01/25 04:33:39;;;;;;;;;;;26.30;99.90;;;;;;5012439;28;20360;-71
2023/01/25 04:36:12;;;;;;;;;;;26.20;99.90;;;;;;5013143;28;20344;-67
2023/01/25 04:38:42;;;;;;;;;;;26.20;99.90;;;;;;5013405;28;20008;-65
2023/01/25 04:41:12;;;;;;;;;;;26.30;99.90;;;;;;5013384;28;19936;-65
2023/01/25 04:43:39;;;;;;;;;;;26.30;99.90;;;;;;5013465;28;19968;-69
2023/01/25 04:46:12;;;;;;;;;;;26.30;99.90;;;;;;5013000;28;19910;-68
2023/01/25 04:48:41;;;;;;;;;;;26.30;99.90;;;;;;5012350;28;19921;-71
2023/01/25 04:51:08;;;;;;;;;;;26.50;99.90;;;;;;5012634;28;19917;-68
2023/01/25 04:53:35;;;;;;;;;;;26.40;99.90;;;;;;5012052;28;20020;-65
2023/01/25 04:56:05;;;;;;;;;;;26.30;99.90;;;;;;5012754;28;19913;-68
2023/01/25 04:58:32;;;;;;;;;;;26.30;99.90;;;;;;5013040;28;19971;-65
2023/01/25 05:01:01;;;;;;;;;;;26.30;99.90;;;;;;5012976;28;19921;-67
2023/01/25 05:03:31;;;;;;;;;;;26.10;99.90;;;;;;5012014;28;19914;-67
2023/01/25 05:05:58;;;;;;;;;;;26.00;99.90;;;;;;5013640;28;20345;-69
2023/01/25 05:08:27;;;;;;;;;;;26.00;99.90;;;;;;5017248;28;19917;-69
2023/01/25 05:10:57;;;;;;;;;;;26.00;99.90;;;;;;5017049;28;19971;-71
2023/01/25 05:13:28;;;;;;;;;;;25.90;99.90;;;;;;5016681;28;20371;-67
2023/01/25 05:15:55;;;;;;;;;;;25.90;99.90;;;;;;5016537;28;19910;-67
2023/01/25 05:18:22;;;;;;;;;;;26.00;99.90;;;;;;5015974;28;20300;-70
2023/01/25 05:20:53;;;;;;;;;;;25.90;99.90;;;;;;5016832;28;19917;-69
2023/01/25 05:23:20;;;;;;;;;;;25.80;99.90;;;;;;5022504;28;19913;-70
2023/01/25 05:28:31;;;;;;;;;;;25.80;99.90;;;;;;5036331;28;20031;-71
2023/01/25 05:30:58;;;;;;;;;;;25.70;99.90;;;;;;5036314;28;19975;-68
2023/01/25 05:33:24;;;;;;;;;;;25.70;99.90;;;;;;5019941;28;20414;-70
2023/01/25 05:35:52;;;;;;;;;;;25.70;99.90;;;;;;5016299;28;19909;-72
2023/01/25 05:38:19;;;;;;;;;;;25.70;99.90;;;;;;5016332;28;19909;-70
2023/01/25 05:40:45;;;;;;;;;;;25.70;99.90;;;;;;5016407;28;20004;-65
2023/01/25 05:43:12;;;;;;;;;;;25.70;99.90;;;;;;5016288;28;20334;-69
2023/01/25 05:45:39;;;;;;;;;;;25.90;99.90;;;;;;5015914;28;19909;-70
2023/01/25 05:48:06;;;;;;;;;;;25.80;99.90;;;;;;5015522;28;19917;-70
2023/01/25 05:50:33;;;;;;;;;;;25.90;99.90;;;;;;5015544;28;19913;-69
2023/01/25 05:53:00;;;;;;;;;;;25.90;99.90;;;;;;5012941;28;19920;-65
2023/01/25 05:55:26;;;;;;;;;;;25.80;99.90;;;;;;5013885;28;19954;-65
2023/01/25 05:57:56;;;;;;;;;;;25.90;99.90;;;;;;5013936;28;19949;-65
2023/01/25 06:00:23;;;;;;;;;;;26.00;99.90;;;;;;5013101;28;19930;-67
2023/01/25 06:02:50;;;;;;;;;;;26.00;99.90;;;;;;5012983;28;19916;-65
2023/01/25 06:05:16;;;;;;;;;;;26.00;99.90;;;;;;5011999;28;20031;-73
2023/01/25 06:07:43;;;;;;;;;;;26.00;99.90;;;;;;5012202;28;20004;-73
2023/01/25 06:10:10;;;;;;;;;;;26.00;99.90;;;;;;5012171;28;20021;-69
2023/01/25 06:12:38;;;;;;;;;;;26.00;99.90;;;;;;5012640;28;19916;-65
2023/01/25 06:15:05;;;;;;;;;;;25.90;99.90;;;;;;5012177;28;19910;-74
2023/01/25 06:17:31;;;;;;;;;;;25.70;99.90;;;;;;5011523;28;19917;-71
2023/01/25 06:19:58;;;;;;;;;;;25.80;99.90;;;;;;5012463;28;19937;-69
2023/01/25 06:22:25;;;;;;;;;;;25.70;99.90;;;;;;5011656;28;19921;-71
2023/01/25 06:24:51;;;;;;;;;;;25.70;99.90;;;;;;5030425;28;19971;-67
2023/01/25 06:27:18;;;;;;;;;;;25.70;99.90;;;;;;5031532;28;19909;-65
2023/01/25 06:29:44;;;;;;;;;;;25.60;99.90;;;;;;5031636;28;19924;-68
2023/01/25 06:32:11;;;;;;;;;;;25.60;99.90;;;;;;5031916;28;19916;-68
2023/01/25 06:34:38;;;;;;;;;;;25.60;99.90;;;;;;5031592;28;19914;-67
2023/01/25 06:37:04;;;;;;;;;;;25.50;99.90;;;;;;5023566;28;19918;-69
2023/01/25 06:39:31;;;;;;;;;;;25.50;99.90;;;;;;5012200;28;19921;-67
2023/01/25 06:41:58;;;;;;;;;;;25.50;99.90;;;;;;5012145;28;20261;-65
2023/01/25 06:44:25;;;;;;;;;;;25.50;99.90;;;;;;5011771;28;19956;-66
2023/01/25 06:46:52;;;;;;;;;;;25.30;99.90;;;;;;5012320;28;19931;-67
2023/01/25 06:49:18;;;;;;;;;;;25.40;99.90;;;;;;5011980;28;20579;-65
2023/01/25 06:51:45;;;;;;;;;;;25.30;99.90;;;;;;5011217;28;20379;-65
2023/01/25 06:54:12;;;;;;;;;;;25.30;99.90;;;;;;5010778;28;20114;-64
2023/01/25 06:56:38;;;;;;;;;;;25.30;99.90;;;;;;5011842;28;19913;-67
2023/01/25 06:59:05;;;;;;;;;;;25.30;99.90;;;;;;4882563;28;3758894;-66
2023/01/25 07:01:32;;;;;;;;;;;25.20;99.90;;;;;;5012804;28;20262;-66
2023/01/25 07:03:59;;;;;;;;;;;25.20;99.90;;;;;;5012421;28;19976;-68
2023/01/25 07:06:26;;;;;;;;;;;25.10;99.90;;;;;;5011588;28;19910;-66
2023/01/25 07:08:53;;;;;;;;;;;25.10;99.90;;;;;;5011586;28;19929;-66
2023/01/25 07:11:19;;;;;;;;;;;25.00;99.90;;;;;;5012113;28;19913;-67
2023/01/25 07:13:47;;;;;;;;;;;25.00;99.90;;;;;;5012140;28;20015;-68
2023/01/25 07:16:15;;;;;;;;;;;25.00;99.90;;;;;;5012526;28;20001;-66
2023/01/25 07:18:42;;;;;;;;;;;25.00;99.90;;;;;;5012818;28;20407;-64
2023/01/25 07:21:16;;;;;;;;;;;24.90;99.90;;;;;;5011879;28;20557;-69
2023/01/25 07:23:43;;;;;;;;;;;24.80;99.90;;;;;;5020780;28;19921;-65
2023/01/25 07:26:17;;;;;;;;;;;24.80;99.90;;;;;;5032148;28;19932;-66
2023/01/25 07:28:45;;;;;;;;;;;24.70;99.90;;;;;;5031371;28;19964;-69
2023/01/25 07:31:11;;;;;;;;;;;24.70;99.90;;;;;;5032105;28;20457;-72
2023/01/25 07:33:38;;;;;;;;;;;24.70;99.90;;;;;;5031797;28;19920;-71
2023/01/25 07:36:06;;;;;;;;;;;24.70;99.90;;;;;;5020400;28;20370;-70
2023/01/25 07:38:33;;;;;;;;;;;24.70;99.90;;;;;;5012456;28;19943;-72
2023/01/25 07:40:59;;;;;;;;;;;24.70;99.90;;;;;;5012353;28;20015;-72
2023/01/25 07:43:26;;;;;;;;;;;24.70;99.90;;;;;;5012148;28;19914;-68
2023/01/25 07:45:53;;;;;;;;;;;24.70;99.90;;;;;;5011320;28;19910;-72
2023/01/25 07:48:20;;;;;;;;;;;24.70;99.90;;;;;;5011588;28;20269;-68
2023/01/25 07:50:48;;;;;;;;;;;24.60;99.90;;;;;;5012227;28;19921;-65
2023/01/25 07:53:15;;;;;;;;;;;24.60;99.90;;;;;;5012214;28;20338;-64
2023/01/25 07:55:42;;;;;;;;;;;24.60;99.90;;;;;;5007695;28;19917;-75
2023/01/25 07:58:12;;;;;;;;;;;24.60;99.90;;;;;;5005631;28;19991;-73
2023/01/25 08:00:39;;;;;;;;;;;24.60;99.90;;;;;;5004886;28;19980;-73
2023/01/25 08:03:06;;;;;;;;;;;24.50;99.90;;;;;;5004554;28;19917;-72
2023/01/25 08:05:33;;;;;;;;;;;24.50;99.90;;;;;;5004690;28;19956;-70
2023/01/25 08:08:00;;;;;;;;;;;24.50;99.90;;;;;;5005248;28;20292;-74
2023/01/25 08:10:27;;;;;;;;;;;24.50;99.90;;;;;;5005177;28;19913;-74
2023/01/25 08:12:53;;;;;;;;;;;24.50;99.90;;;;;;5005183;28;19960;-71
2023/01/25 08:15:20;;;;;;;;;;;24.50;99.90;;;;;;5003552;28;19917;-70
2023/01/25 08:17:46;;;;;;;;;;;24.50;99.90;;;;;;5005222;28;19925;-72
2023/01/25 08:20:13;;;;;;;;;;;24.50;99.90;;;;;;5005212;28;20512;-73
2023/01/25 08:22:40;;;;;;;;;;;24.40;99.90;;;;;;5005616;28;19914;-72
2023/01/25 08:25:07;;;;;;;;;;;24.30;99.90;;;;;;5024499;28;20318;-70
2023/01/25 08:27:33;;;;;;;;;;;24.30;99.90;;;;;;5024110;28;19913;-72
2023/01/25 08:30:00;;;;;;;;;;;24.30;99.90;;;;;;5010604;28;19926;-74
2023/01/25 08:32:27;;;;;;;;;;;24.30;99.90;;;;;;5005114;28;19913;-73
2023/01/25 08:34:53;;;;;;;;;;;24.20;99.90;;;;;;5004596;28;19914;-74
2023/01/25 08:37:20;;;;;;;;;;;24.20;99.90;;;;;;5004170;28;19917;-75
2023/01/25 08:39:46;;;;;;;;;;;24.20;99.90;;;;;;5004735;28;20272;-73
2023/01/25 08:42:13;;;;;;;;;;;24.10;99.90;;;;;;5004725;28;19914;-74
2023/01/25 08:44:40;;;;;;;;;;;24.10;99.90;;;;;;5004436;28;20722;-73
2023/01/25 08:47:06;;;;;;;;;;;24.10;99.90;;;;;;5004916;28;19920;-73
2023/01/25 08:49:33;;;;;;;;;;;24.10;99.90;;;;;;5004531;28;20315;-74
2023/01/25 08:52:00;;;;;;;;;;;24.10;99.90;;;;;;5003230;28;19929;-73
2023/01/25 08:54:27;;;;;;;;;;;24.00;99.90;;;;;;5002785;28;20020;-72
2023/01/25 08:56:53;;;;;;;;;;;24.00;99.90;;;;;;5003628;28;19964;-76
2023/01/25 08:59:20;;;;;;;;;;;24.00;99.90;;;;;;5004096;28;19921;-73
2023/01/25 09:01:47;;;;;;;;;;;24.00;99.90;;;;;;5004647;28;19918;-74
2023/01/25 09:04:13;;;;;;;;;;;24.00;99.90;;;;;;5004620;28;20628;-74
2023/01/25 09:06:40;;;;;;;;;;;23.90;99.90;;;;;;5003935;28;20336;-75
2023/01/25 09:09:07;;;;;;;;;;;23.90;99.90;;;;;;5004323;28;20667;-72
2023/01/25 09:11:35;;;;;;;;;;;23.90;99.90;;;;;;5004411;28;19937;-75
2023/01/25 09:14:03;;;;;;;;;;;23.90;99.90;;;;;;5004386;28;19917;-72
2023/01/25 09:16:30;;;;;;;;;;;23.80;99.90;;;;;;5004939;28;19956;-73
2023/01/25 09:18:58;;;;;;;;;;;23.80;99.90;;;;;;5008638;28;19910;-75
2023/01/25 09:21:25;;;;;;;;;;;23.80;99.90;;;;;;5011980;28;19964;-75
2023/01/25 09:23:52;;;;;;;;;;;23.80;99.90;;;;;;5023027;28;19931;-74
2023/01/25 09:26:19;;;;;;;;;;;23.80;99.90;;;;;;5032560;28;19909;-73
2023/01/25 09:28:50;;;;;;;;;;;23.80;99.90;;;;;;5032762;28;20012;-75
2023/01/25 09:31:17;;;;;;;;;;;23.70;99.90;;;;;;5032381;28;20374;-72
2023/01/25 09:33:44;;;;;;;;;;;23.70;99.90;;;;;;5032117;28;19909;-72
2023/01/25 09:36:10;;;;;;;;;;;23.70;99.90;;;;;;5027643;28;19914;-72
2023/01/25 09:38:37;;;;;;;;;;;23.70;99.90;;;;;;5012864;28;19910;-72
2023/01/25 09:41:04;;;;;;;;;;;23.60;99.90;;;;;;5012737;28;20008;-70
2023/01/25 09:43:49;;;;;;;;;;;23.60;99.90;;;;;;5012502;28;20000;-72
2023/01/25 09:46:23;;;;;;;;;;;23.60;99.90;;;;;;5013069;28;19913;-72
2023/01/25 09:49:00;;;;;;;;;;;23.60;99.90;;;;;;5012984;28;19917;-73
2023/01/25 09:51:33;;;;;;;;;;;23.60;99.90;;;;;;5011886;28;20265;-72
2023/01/25 09:54:03;;;;;;;;;;;23.60;99.90;;;;;;5015192;28;19932;-72
2023/01/25 09:56:32;;;;;;;;;;;23.60;99.90;;;;;;5016289;28;19913;-72
2023/01/25 09:59:02;;;;;;;;;;;23.60;99.90;;;;;;5016316;28;20344;-72
2023/01/25 10:01:39;;;;;;;;;;;23.70;99.90;;;;;;5016423;28;20048;-73
2023/01/25 10:04:12;;;;;;;;;;;23.60;99.90;;;;;;5009965;28;19920;-72
2023/01/25 10:06:40;;;;;;;;;;;23.60;99.90;;;;;;5007253;28;20572;-73
2023/01/25 10:09:12;;;;;;;;;;;23.60;99.90;;;;;;5007503;28;19921;-73
2023/01/25 10:11:39;;;;;;;;;;;23.60;99.90;;;;;;5007806;28;19944;-73
2023/01/25 10:14:16;;;;;;;;;;;23.60;99.90;;;;;;5007189;28;19913;-73
2023/01/25 10:16:53;;;;;;;;;;;23.60;99.90;;;;;;5007324;28;19988;-71
2023/01/25 10:19:43;;;;;;;;;;;23.60;99.90;;;;;;5007583;28;20012;-73
2023/01/25 10:22:10;;;;;;;;;;;23.60;99.90;;;;;;5005809;28;19972;-71
2023/01/25 10:24:46;;;;;;;;;;;23.60;99.90;;;;;;5023730;28;20459;-72
2023/01/25 10:27:29;;;;;;;;;;;23.60;99.90;;;;;;5026774;28;20643;-71
2023/01/25 10:29:58;;;;;;;;;;;23.50;99.90;;;;;;5026646;28;20419;-74
2023/01/25 10:32:27;;;;;;;;;;;23.50;99.90;;;;;;5015898;28;19917;-72
2023/01/25 10:34:55;;;;;;;;;;;23.50;99.90;;;;;;5007189;28;19914;-70
2023/01/25 10:37:24;;;;;;;;;;;23.50;99.90;;;;;;5007657;28;20457;-72
2023/01/25 10:40:16;;;;;;;;;;;23.50;99.90;;;;;;5007295;28;19913;-73
2023/01/25 10:42:45;;;;;;;;;;;23.50;99.90;;;;;;5003798;28;19918;-73
2023/01/25 10:45:15;;;;;;;;;;;23.50;99.90;;;;;;5006966;28;19984;-70
2023/01/25 10:47:45;;;;;;;;;;;23.50;99.90;;;;;;5006152;28;20419;-71
2023/01/25 10:50:32;;;;;;;;;;;23.50;99.90;;;;;;5007084;28;20190;-74
2023/01/25 10:52:58;;;;;;;;;;;23.50;99.90;;;;;;5006874;28;19919;-71
2023/01/25 10:55:27;;;;;;;;;;;23.50;99.90;;;;;;5006575;28;20448;-73
2023/01/25 10:57:56;;;;;;;;;;;23.40;99.90;;;;;;5006734;28;20642;-72
2023/01/25 11:00:26;;;;;;;;;;;23.50;99.90;;;;;;5006707;28;19926;-75
2023/01/25 11:02:53;;;;;;;;;;;23.40;99.90;;;;;;5005222;28;19944;-74
2023/01/25 11:05:39;;;;;;;;;;;23.40;99.90;;;;;;5004821;28;20365;-71
2023/01/25 11:08:25;;;;;;;;;;;23.40;99.90;;;;;;5006010;28;20770;-74
2023/01/25 11:10:53;;;;;;;;;;;23.40;99.90;;;;;;5006213;28;19992;-73
2023/01/25 11:13:21;;;;;;;;;;;23.40;99.90;;;;;;5006023;28;19920;-74
2023/01/25 11:15:50;;;;;;;;;;;23.30;99.90;;;;;;5006462;28;20008;-72
2023/01/25 11:18:17;;;;;;;;;;;23.30;99.90;;;;;;5006472;28;19913;-74
2023/01/25 11:20:43;;;;;;;;;;;23.30;99.90;;;;;;5006515;28;19960;-70
2023/01/25 11:23:23;;;;;;;;;;;23.30;99.90;;;;;;5009557;28;19995;-71
2023/01/25 11:25:51;;;;;;;;;;;23.30;99.90;;;;;;5014625;28;19948;-66
2023/01/25 11:28:24;;;;;;;;;;;23.30;99.90;;;;;;5006196;28;19921;-68
2023/01/25 11:30:51;;;;;;;;;;;23.30;99.90;;;;;;5006327;28;19920;-67
2023/01/25 11:33:19;;;;;;;;;;;23.30;99.90;;;;;;5005805;28;19921;-67
2023/01/25 11:35:49;;;;;;;;;;;23.30;99.90;;;;;;5006057;28;19914;-71
2023/01/25 11:38:18;;;;;;;;;;;23.30;99.90;;;;;;5005590;28;19917;-72
2023/01/25 11:41:17;;;;;;;;;;;23.20;99.90;;;;;;5006033;28;19919;-72
2023/01/25 11:43:43;;;;;;;;;;;23.20;99.90;;;;;;4972421;28;19914;-67
2023/01/25 11:46:28;;;;;;;;;;;23.20;99.90;;;;;;5005974;28;19920;-68
2023/01/25 11:49:01;;;;;;;;;;;23.20;99.90;;;;;;5005760;28;19944;-64
2023/01/25 11:51:33;;;;;;;;;;;23.20;99.90;;;;;;5005132;28;19940;-73
2023/01/25 11:54:18;;;;;;;;;;;23.20;99.90;;;;;;5005490;28;20382;-64
2023/01/25 11:56:57;;;;;;;;;;;23.20;99.90;;;;;;5005640;28;19967;-67
2023/01/25 11:59:33;;;;;;;;;;;23.10;99.90;;;;;;5005528;28;19961;-71
2023/01/25 12:02:09;;;;;;;;;;;23.10;99.90;;;;;;5005440;28;19979;-70
2023/01/25 12:04:54;;;;;;;;;;;23.10;99.90;;;;;;5005298;28;20047;-68
2023/01/25 12:07:29;;;;;;;;;;;23.10;99.90;;;;;;5004790;28;19980;-71
2023/01/25 12:10:17;;;;;;;;;;;23.10;99.90;;;;;;5005463;28;19926;-73
2023/01/25 12:12:54;;;;;;;;;;;23.10;99.90;;;;;;5005677;28;19972;-67
2023/01/25 12:15:33;;;;;;;;;;;23.10;99.90;;;;;;5004084;28;19914;-72
2023/01/25 12:18:06;;;;;;;;;;;23.10;99.90;;;;;;5005712;28;20449;-74
2023/01/25 12:20:36;;;;;;;;;;;23.00;99.90;;;;;;5004793;28;19918;-66
2023/01/25 12:23:21;;;;;;;;;;;23.10;99.90;;;;;;5009109;28;20027;-73
2023/01/25 12:25:53;;;;;;;;;;;23.00;99.90;;;;;;5005643;28;19921;-75
2023/01/25 12:28:26;;;;;;;;;;;23.00;99.90;;;;;;5004783;28;19928;-68
2023/01/25 12:31:04;;;;;;;;;;;23.00;99.90;;;;;;5005163;28;20458;-69
2023/01/25 12:33:30;;;;;;;;;;;23.00;99.90;;;;;;5004725;28;19920;-71
2023/01/25 12:36:11;;;;;;;;;;;23.00;99.90;;;;;;5004464;28;19918;-72
2023/01/25 12:38:43;;;;;;;;;;;23.10;99.90;;;;;;5005183;28;19948;-69
2023/01/25 12:41:25;;;;;;;;;;;23.00;99.90;;;;;;5004547;28;20272;-70
2023/01/25 12:44:03;;;;;;;;;;;23.00;99.90;;;;;;5004875;28;20000;-71
2023/01/25 12:46:41;;;;;;;;;;;23.00;99.90;;;;;;5005337;28;19964;-71
2023/01/25 12:49:15;;;;;;;;;;;23.00;99.90;;;;;;5005041;28;20664;-70
2023/01/25 12:51:42;;;;;;;;;;;23.00;99.90;;;;;;5004265;28;19918;-65
2023/01/25 12:54:35;;;;;;;;;;;23.00;99.90;;;;;;5004535;28;19920;-66
2023/01/25 12:57:18;;;;;;;;;;;23.10;99.90;;;;;;5002174;28;20564;-67
2023/01/25 12:59:52;;;;;;;;;;;23.10;99.90;;;;;;5004586;28;20302;-71
2023/01/25 13:02:32;;;;;;;;;;;23.10;99.90;;;;;;5005181;28;19914;-70
2023/01/25 13:05:12;;;;;;;;;;;23.10;99.90;;;;;;5003821;28;20003;-69
2023/01/25 13:07:44;;;;;;;;;;;23.10;99.90;;;;;;5003985;28;19921;-70
2023/01/25 13:10:14;;;;;;;;;;;23.10;99.90;;;;;;5004895;28;19922;-71
2023/01/25 13:12:53;;;;;;;;;;;23.10;99.90;;;;;;5004759;28;19921;-71
2023/01/25 13:15:35;;;;;;;;;;;23.10;99.90;;;;;;5004160;28;19919;-63
2023/01/25 13:18:22;;;;;;;;;;;23.10;99.90;;;;;;5004975;28;19917;-74
2023/01/25 13:20:50;;;;;;;;;;;23.10;99.90;;;;;;5003519;28;20418;-67
2023/01/25 13:23:30;;;;;;;;;;;23.10;99.90;;;;;;5009746;28;20597;-67
2023/01/25 13:26:23;;;;;;;;;;;23.10;99.90;;;;;;5024442;28;19920;-69
2023/01/25 13:28:51;;;;;;;;;;;23.10;99.90;;;;;;5026022;28;19921;-68
2023/01/25 13:31:35;;;;;;;;;;;23.10;99.90;;;;;;5028187;28;19919;-69
2023/01/25 13:34:02;;;;;;;;;;;23.10;99.90;;;;;;5027742;28;20441;-68
2023/01/25 13:36:40;;;;;;;;;;;23.10;99.90;;;;;;5007750;28;19921;-70
2023/01/25 13:39:30;;;;;;;;;;;23.10;99.90;;;;;;5008328;28;20541;-71
2023/01/25 13:42:00;;;;;;;;;;;23.10;99.90;;;;;;5008373;28;19933;-72
2023/01/25 13:44:28;;;;;;;;;;;23.10;99.90;;;;;;5007957;28;19921;-72
2023/01/25 13:46:59;;;;;;;;;;;23.10;99.90;;;;;;5007706;28;19968;-73
2023/01/25 13:49:30;;;;;;;;;;;23.10;99.90;;;;;;5007238;28;20351;-73
2023/01/25 13:51:58;;;;;;;;;;;23.00;99.90;;;;;;5007939;28;19992;-70
2023/01/25 13:54:25;;;;;;;;;;;23.00;99.90;;;;;;5007725;28;20391;-73
2023/01/25 13:57:05;;;;;;;;;;;23.00;99.90;;;;;;5007920;28;19913;-73
2023/01/25 13:59:31;;;;;;;;;;;23.00;99.90;;;;;;5007360;28;19972;-65
2023/01/25 14:01:58;;;;;;;;;;;22.90;99.90;;;;;;5008254;28;19952;-73
2023/01/25 14:04:26;;;;;;;;;;;22.90;99.90;;;;;;5006944;28;19917;-70
2023/01/25 14:06:57;;;;;;;;;;;22.90;99.90;;;;;;5007817;28;20331;-68
2023/01/25 14:09:24;;;;;;;;;;;23.00;99.90;;;;;;5007831;28;19922;-69
2023/01/25 14:11:54;;;;;;;;;;;22.90;99.90;;;;;;5007070;28;20892;-66
2023/01/25 14:14:24;;;;;;;;;;;22.90;99.90;;;;;;5007320;28;19913;-73
2023/01/25 14:17:09;;;;;;;;;;;22.90;99.90;;;;;;5007631;28;19913;-71
2023/01/25 14:19:36;;;;;;;;;;;22.90;99.90;;;;;;5006761;28;19960;-70
2023/01/25 14:22:12;;;;;;;;;;;22.90;99.90;;;;;;5007887;28;20742;-68
2023/01/25 14:24:39;;;;;;;;;;;22.90;99.90;;;;;;5023726;28;19913;-70
2023/01/25 14:27:06;;;;;;;;;;;22.90;99.90;;;;;;5027033;28;19920;-71
2023/01/25 14:29:36;;;;;;;;;;;22.80;99.90;;;;;;5027141;28;19925;-70
2023/01/25 14:32:03;;;;;;;;;;;22.90;99.90;;;;;;5026946;28;19917;-64
2023/01/25 14:34:29;;;;;;;;;;;22.90;99.90;;;;;;5014040;28;20004;-64
2023/01/25 14:37:25;;;;;;;;;;;22.90;99.90;;;;;;5014540;28;19917;-73
2023/01/25 14:39:52;;;;;;;;;;;22.80;99.90;;;;;;5002905;28;19910;-74
2023/01/25 14:42:19;;;;;;;;;;;22.80;99.90;;;;;;5015775;28;19932;-73